Time;durP1;ratioP1;P1;durP2;ratioP2;P2;SDS_P1;SDS_P2;PMS_P1;PMS_P2;Temp;Humidity;BMP_temperature;BMP_pressure;BME280_temperature;BME280_humidity;BME280_pressure;Samples;Min_cycle;Max_cycle;Signal;HPM_P1;HPM_P2
2023/09/29 00:02:30;;;;;;;;;;;;;;;28.76;41.32;94643.78;5007622;28;7202;-54
2023/09/29 00:04:58;;;;;;;;;;;;;;;28.74;41.17;94645.59;5033795;28;7014;-54
2023/09/29 00:07:24;;;;;;;;;;;;;;;28.75;41.67;94644.34;5008468;28;7120;-54
2023/09/29 00:09:52;;;;;;;;;;;;;;;28.77;41.24;94650.09;5005336;28;9056;-54
2023/09/29 00:12:23;;;;;;;;;;;;;;;28.72;40.91;94648.91;5013967;28;7228;-53
2023/09/29 00:14:49;;;;;;;;;;;;;;;28.74;41.13;94648.38;5019074;28;8993;-54
2023/09/29 00:17:15;;;;;;;;;;;;;;;28.70;40.98;94651.44;5011552;28;7086;-54
2023/09/29 00:19:45;;;;;;;;;;;;;;;28.72;41.85;94648.16;5002561;28;7651;-54
2023/09/29 00:22:11;;;;;;;;;;;;;;;28.71;41.52;94641.84;5030330;28;8138;-54
2023/09/29 00:24:37;;;;;;;;;;;;;;;28.73;40.67;94649.66;5020100;28;9026;-54
2023/09/29 00:27:03;;;;;;;;;;;;;;;28.69;41.48;94644.41;5011635;28;7138;-54
2023/09/29 00:29:32;;;;;;;;;;;;;;;28.72;41.46;94643.34;5015213;28;9170;-54
2023/09/29 00:32:06;;;;;;;;;;;;;;;28.70;41.50;94643.13;5017245;28;6956;-54
2023/09/29 00:34:32;;;;;;;;;;;;;;;28.71;41.58;94641.84;5053789;28;7017;-54
2023/09/29 00:37:08;;;;;;;;;;;;;;;28.72;41.26;94648.16;5071085;28;7468;-54
2023/09/29 00:39:34;;;;;;;;;;;;;;;28.68;41.11;94642.91;5046694;28;7320;-55
2023/09/29 00:42:07;;;;;;;;;;;;;;;28.70;41.38;94647.91;5067617;28;7027;-54
2023/09/29 00:45:04;;;;;;;;;;;;;;;28.69;41.67;94647.16;5071770;28;7229;-54
2023/09/29 00:47:36;;;;;;;;;;;;;;;28.67;41.35;94646.94;5078043;28;8705;-54
2023/09/29 00:50:42;;;;;;;;;;;;;;;28.68;41.34;94642.16;5050428;28;9160;-54
2023/09/29 00:53:14;;;;;;;;;;;;;;;28.69;40.93;94638.88;5052794;28;8816;-54
2023/09/29 00:55:49;;;;;;;;;;;;;;;28.68;40.96;94642.16;5056979;28;7262;-54
2023/09/29 00:58:17;;;;;;;;;;;;;;;28.66;41.44;94639.19;5038467;28;7234;-54
2023/09/29 01:00:45;;;;;;;;;;;;;;;28.67;40.92;94640.66;5044869;28;8200;-54
2023/09/29 01:03:28;;;;;;;;;;;;;;;28.63;41.23;94638.19;5079316;28;7396;-60
2023/09/29 01:06:10;;;;;;;;;;;;;;;28.64;41.49;94641.72;5048639;28;7639;-60
2023/09/29 01:08:39;;;;;;;;;;;;;;;28.65;41.39;94641.19;5060654;28;7334;-61
2023/09/29 01:11:15;;;;;;;;;;;;;;;28.65;41.29;94643.22;5055646;28;7215;-61
2023/09/29 01:13:42;;;;;;;;;;;;;;;28.61;40.77;94637.97;5060965;28;6990;-60
2023/09/29 01:16:28;;;;;;;;;;;;;;;28.63;41.85;94632.66;5076680;28;6985;-60
2023/09/29 01:19:14;;;;;;;;;;;;;;;28.64;41.54;94630.66;5068632;28;6981;-60
2023/09/29 01:21:46;;;;;;;;;;;;;;;28.62;41.18;94628.41;5057064;28;9033;-61
2023/09/29 01:24:26;;;;;;;;;;;;;;;28.60;41.19;94630.94;5057633;28;7334;-60
2023/09/29 01:27:06;;;;;;;;;;;;;;;28.59;41.31;94629.47;5062777;28;7424;-60
2023/09/29 01:29:34;;;;;;;;;;;;;;;28.61;41.41;94628.94;5057223;28;9091;-60
2023/09/29 01:32:02;;;;;;;;;;;;;;;28.61;41.16;94624.16;5068041;28;7906;-60
2023/09/29 01:34:41;;;;;;;;;;;;;;;28.60;41.58;94617.09;5083022;28;7179;-60
2023/09/29 01:37:07;;;;;;;;;;;;;;;28.62;41.29;94624.91;5065559;28;7203;-60
2023/09/29 01:39:34;;;;;;;;;;;;;;;28.62;41.48;94624.91;5061485;28;7226;-61
2023/09/29 01:42:34;;;;;;;;;;;;;;;28.59;41.44;94626.69;5077585;28;9387;-61
2023/09/29 01:45:29;;;;;;;;;;;;;;;28.59;41.34;94625.94;5019264;28;7737;-60
2023/09/29 01:48:09;;;;;;;;;;;;;;;28.56;41.54;94624.94;5014975;28;7147;-60
2023/09/29 01:50:49;;;;;;;;;;;;;;;28.58;41.03;94621.69;5033035;28;7210;-60
2023/09/29 01:53:16;;;;;;;;;;;;;;;28.56;41.59;94630.47;5030236;28;7268;-60
2023/09/29 01:55:43;;;;;;;;;;;;;;;28.56;40.83;94629.75;5021242;28;7404;-61
2023/09/29 01:58:26;;;;;;;;;;;;;;;28.56;41.72;94624.22;5020422;28;7001;-61
2023/09/29 02:00:54;;;;;;;;;;;;;;;28.54;41.40;94624.72;5006314;28;7085;-61
2023/09/29 02:03:23;;;;;;;;;;;;;;;28.53;41.60;94628.78;5006018;28;9322;-60
2023/09/29 02:06:02;;;;;;;;;;;;;;;28.55;41.97;94633.78;5014115;28;7414;-60
2023/09/29 02:08:30;;;;;;;;;;;;;;;28.54;41.49;94633.00;5032025;28;7593;-60
2023/09/29 02:11:09;;;;;;;;;;;;;;;28.53;41.74;94637.06;5029049;28;9231;-60
2023/09/29 02:13:52;;;;;;;;;;;;;;;28.53;41.51;94636.31;5020226;28;7195;-60
2023/09/29 02:16:18;;;;;;;;;;;;;;;28.50;41.61;94632.56;5032588;28;7246;-60
2023/09/29 02:19:17;;;;;;;;;;;;;;;28.52;41.79;94646.63;5022489;28;7445;-60
2023/09/29 02:21:55;;;;;;;;;;;;;;;28.51;41.49;94641.63;5017638;28;7818;-60
2023/09/29 02:24:34;;;;;;;;;;;;;;;28.51;41.17;94644.41;4980339;28;9194;-60
2023/09/29 02:27:16;;;;;;;;;;;;;;;28.48;41.93;94642.66;4995782;28;7310;-61
2023/09/29 02:30:01;;;;;;;;;;;;;;;28.48;41.62;94645.44;5001806;28;9330;-60
2023/09/29 02:32:29;;;;;;;;;;;;;;;28.46;41.35;94640.44;5001247;28;7038;-60
2023/09/29 02:35:20;;;;;;;;;;;;;;;28.45;41.81;94644.47;5006765;28;7237;-60
2023/09/29 02:37:58;;;;;;;;;;;;;;;28.46;41.93;94645.97;5010018;28;7249;-60
2023/09/29 02:40:28;;;;;;;;;;;;;;;28.46;41.72;94642.44;5002383;28;7485;-60
2023/09/29 02:43:05;;;;;;;;;;;;;;;28.43;41.32;94644.22;5011827;28;8754;-60
2023/09/29 02:45:35;;;;;;;;;;;;;;;28.44;41.21;94645.00;5006373;28;9797;-61
2023/09/29 02:48:06;;;;;;;;;;;;;;;28.44;41.65;94647.75;4997865;28;7223;-60
2023/09/29 02:50:47;;;;;;;;;;;;;;;28.42;41.93;94651.06;4991174;28;9128;-60
2023/09/29 02:53:22;;;;;;;;;;;;;;;28.44;41.80;94659.56;5005092;28;8996;-61
2023/09/29 02:55:51;;;;;;;;;;;;;;;28.41;41.70;94651.56;5004014;28;8220;-60
2023/09/29 02:58:34;;;;;;;;;;;;;;;28.41;41.67;94655.06;5044979;28;7253;-60
2023/09/29 03:01:19;;;;;;;;;;;;;;;28.37;41.56;94657.41;5065151;28;8962;-60
2023/09/29 03:03:45;;;;;;;;;;;;;;;28.40;41.46;94664.66;5067587;28;8768;-60
2023/09/29 03:06:21;;;;;;;;;;;;;;;28.38;41.76;94664.44;5066793;28;8717;-60
2023/09/29 03:08:53;;;;;;;;;;;;;;;28.40;41.55;94655.59;5052195;28;9148;-60
2023/09/29 03:11:25;;;;;;;;;;;;;;;28.38;41.88;94661.69;5043958;28;8224;-60
2023/09/29 03:13:54;;;;;;;;;;;;;;;28.37;42.09;94660.16;5036501;28;9110;-61
2023/09/29 03:16:24;;;;;;;;;;;;;;;28.37;41.65;94660.16;5054323;28;7214;-61
2023/09/29 03:18:50;;;;;;;;;;;;;;;28.38;41.64;94649.84;5065545;28;7494;-61
2023/09/29 03:21:23;;;;;;;;;;;;;;;28.35;42.11;94657.19;5069947;28;7303;-61
2023/09/29 03:24:03;;;;;;;;;;;;;;;28.36;42.33;94661.44;5056680;28;8325;-59
2023/09/29 03:26:35;;;;;;;;;;;;;;;28.36;41.86;94650.38;5068733;28;8858;-60
2023/09/29 03:29:35;;;;;;;;;;;;;;;28.36;41.80;94647.63;5077578;28;8769;-59
2023/09/29 03:32:20;;;;;;;;;;;;;;;28.35;41.70;94660.69;5074041;28;7217;-59
2023/09/29 03:35:18;;;;;;;;;;;;;;;28.33;41.35;94652.19;5074790;28;8790;-60
2023/09/29 03:37:51;;;;;;;;;;;;;;;28.33;41.76;94656.97;5006164;28;8786;-60
2023/09/29 03:40:36;;;;;;;;;;;;;;;28.30;42.03;94652.47;5018115;28;6963;-60
2023/09/29 03:43:03;;;;;;;;;;;;;;;28.31;42.19;94665.78;4992802;28;7247;-60
2023/09/29 03:45:43;;;;;;;;;;;;;;;28.28;41.90;94666.81;5021503;28;9019;-59
2023/09/29 03:48:25;;;;;;;;;;;;;;;28.29;41.60;94662.78;4996889;28;8675;-59
2023/09/29 03:51:26;;;;;;;;;;;;;;;28.31;42.03;94670.56;5005022;28;8724;-60
2023/09/29 03:54:05;;;;;;;;;;;;;;;28.30;41.90;94669.06;4938661;28;7237;-60
2023/09/29 03:56:53;;;;;;;;;;;;;;;28.31;42.06;94670.56;4953880;28;9112;-60
2023/09/29 03:59:52;;;;;;;;;;;;;;;28.30;42.33;94664.28;4931520;29;7104;-60
2023/09/29 04:02:20;;;;;;;;;;;;;;;28.29;41.91;94671.09;4877383;29;7246;-59
2023/09/29 04:04:50;;;;;;;;;;;;;;;28.29;42.11;94670.34;4859315;29;7084;-59
2023/09/29 04:07:17;;;;;;;;;;;;;;;28.27;41.93;94661.81;4875632;29;7326;-60
2023/09/29 04:09:45;;;;;;;;;;;;;;;28.26;41.50;94663.06;4875851;29;7218;-59
2023/09/29 04:12:20;;;;;;;;;;;;;;;28.26;41.67;94665.84;4876997;29;9245;-59
2023/09/29 04:14:56;;;;;;;;;;;;;;;28.27;42.28;94670.13;4931903;29;8763;-59
2023/09/29 04:17:22;;;;;;;;;;;;;;;28.26;41.62;94663.06;4915762;29;6914;-59
2023/09/29 04:19:49;;;;;;;;;;;;;;;28.26;41.41;94663.81;4920833;29;9057;-60
2023/09/29 04:22:15;;;;;;;;;;;;;;;28.25;41.69;94673.38;4921867;29;7234;-59
2023/09/29 04:24:42;;;;;;;;;;;;;;;28.23;41.94;94672.44;4926743;29;7308;-59
2023/09/29 04:27:09;;;;;;;;;;;;;;;28.27;41.53;94667.34;4943960;28;7943;-59
2023/09/29 04:29:50;;;;;;;;;;;;;;;28.26;41.50;94663.06;5007671;28;7290;-59
2023/09/29 04:32:26;;;;;;;;;;;;;;;28.21;41.43;94659.09;5005617;28;7050;-59
2023/09/29 04:35:01;;;;;;;;;;;;;;;28.23;41.40;94658.59;4982469;28;7230;-61
2023/09/29 04:37:33;;;;;;;;;;;;;;;28.24;41.43;94660.09;4982960;28;7517;-60
2023/09/29 04:40:04;;;;;;;;;;;;;;;28.25;41.78;94667.13;5058503;28;7212;-60
2023/09/29 04:42:31;;;;;;;;;;;;;;;28.20;41.95;94659.63;5062207;28;9056;-61
2023/09/29 04:45:02;;;;;;;;;;;;;;;28.23;41.84;94662.09;5063890;28;6988;-61
2023/09/29 04:47:40;;;;;;;;;;;;;;;28.23;41.81;94658.59;5074394;28;9281;-61
2023/09/29 04:50:07;;;;;;;;;;;;;;;28.22;41.48;94668.91;5048384;28;7146;-61
2023/09/29 04:52:42;;;;;;;;;;;;;;;28.20;42.02;94665.16;5058005;28;9109;-60
2023/09/29 04:55:17;;;;;;;;;;;;;;;28.21;42.47;94680.47;5073300;28;9061;-60
2023/09/29 04:57:43;;;;;;;;;;;;;;;28.21;41.55;94684.00;5076151;28;7879;-61
2023/09/29 05:00:11;;;;;;;;;;;;;;;28.20;41.88;94687.28;5056505;28;6977;-61
2023/09/29 05:02:43;;;;;;;;;;;;;;;28.22;41.64;94685.50;5059622;28;7156;-61
2023/09/29 05:05:43;;;;;;;;;;;;;;;28.21;42.40;94702.59;5077516;28;8871;-61
2023/09/29 05:08:20;;;;;;;;;;;;;;;28.21;42.04;94699.84;5026504;28;7286;-61
2023/09/29 05:10:47;;;;;;;;;;;;;;;28.21;41.95;94705.38;5032164;28;7002;-61
2023/09/29 05:13:32;;;;;;;;;;;;;;;28.18;42.05;94703.66;5028311;28;6996;-61
2023/09/29 05:16:10;;;;;;;;;;;;;;;28.19;41.89;94710.69;5038513;28;7556;-60
2023/09/29 05:18:48;;;;;;;;;;;;;;;28.21;41.14;94717.19;5024582;28;7032;-61
2023/09/29 05:21:17;;;;;;;;;;;;;;;28.21;41.10;94714.44;5042889;28;9114;-61
2023/09/29 05:23:43;;;;;;;;;;;;;;;28.22;41.46;94712.41;5032923;28;9140;-61
2023/09/29 05:26:09;;;;;;;;;;;;;;;28.21;41.31;94714.44;5046093;28;9359;-61
2023/09/29 05:28:51;;;;;;;;;;;;;;;28.19;41.92;94718.97;5042359;28;9137;-61
2023/09/29 05:31:17;;;;;;;;;;;;;;;28.21;41.39;94722.72;5037068;28;8811;-61
2023/09/29 05:33:46;;;;;;;;;;;;;;;28.22;40.98;94726.25;5048863;28;10014;-61
2023/09/29 05:36:31;;;;;;;;;;;;;;;28.20;41.97;94732.31;5039508;28;7368;-61
2023/09/29 05:39:08;;;;;;;;;;;;;;;28.21;41.75;94733.03;5041386;28;8181;-61
2023/09/29 05:41:45;;;;;;;;;;;;;;;28.18;41.44;94723.03;5019443;28;7406;-61
2023/09/29 05:44:17;;;;;;;;;;;;;;;28.15;41.20;94732.34;5053021;28;8723;-55
2023/09/29 05:47:03;;;;;;;;;;;;;;;28.17;42.11;94738.88;5065679;28;7311;-55
2023/09/29 05:49:38;;;;;;;;;;;;;;;28.14;40.64;94741.94;5065474;28;7185;-55
2023/09/29 05:52:05;;;;;;;;;;;;;;;28.11;40.42;94735.41;5075365;28;7546;-55
2023/09/29 05:54:58;;;;;;;;;;;;;;;28.14;40.45;94744.69;5069147;28;7195;-55
2023/09/29 05:57:26;;;;;;;;;;;;;;;28.13;40.50;94743.19;5038864;28;9234;-56
2023/09/29 05:59:56;;;;;;;;;;;;;;;28.10;39.86;94747.00;5040715;28;7956;-56
2023/09/29 06:02:24;;;;;;;;;;;;;;;28.10;40.23;94747.72;5024510;28;7146;-56
2023/09/29 06:04:57;;;;;;;;;;;;;;;28.12;39.92;94747.22;5012810;28;8599;-56
2023/09/29 06:07:34;;;;;;;;;;;;;;;28.11;40.22;94746.47;5013103;28;7241;-55
2023/09/29 06:10:04;;;;;;;;;;;;;;;28.09;39.98;94751.78;5037653;28;9179;-56
2023/09/29 06:12:45;;;;;;;;;;;;;;;28.09;40.10;94749.03;5028230;28;9550;-55
2023/09/29 06:15:12;;;;;;;;;;;;;;;28.07;39.87;94743.25;5035055;28;7424;-56
2023/09/29 06:17:39;;;;;;;;;;;;;;;28.09;39.85;94748.25;5010448;28;7290;-56
2023/09/29 06:20:07;;;;;;;;;;;;;;;28.09;39.58;94754.56;5030871;28;7222;-55
2023/09/29 06:22:57;;;;;;;;;;;;;;;28.09;40.29;94756.56;5006217;28;7987;-56
2023/09/29 06:25:55;;;;;;;;;;;;;;;28.10;39.89;94755.31;5005871;28;9381;-56
2023/09/29 06:28:21;;;;;;;;;;;;;;;28.09;39.79;94760.06;5022683;28;7238;-55
2023/09/29 06:31:04;;;;;;;;;;;;;;;28.09;39.80;94759.31;5006316;28;7245;-56
2023/09/29 06:33:30;;;;;;;;;;;;;;;28.08;40.29;94763.34;5018693;28;7235;-55
2023/09/29 06:35:59;;;;;;;;;;;;;;;28.09;40.16;94767.63;5069490;28;7303;-56
2023/09/29 06:38:26;;;;;;;;;;;;;;;28.06;40.27;94768.66;5073548;28;8762;-55
2023/09/29 06:40:58;;;;;;;;;;;;;;;28.06;40.25;94774.94;5061003;28;8759;-55
2023/09/29 06:43:24;;;;;;;;;;;;;;;28.07;40.07;94783.97;5047688;28;8183;-55
2023/09/29 06:46:18;;;;;;;;;;;;;;;28.07;40.42;94783.97;5067783;28;7113;-55
2023/09/29 06:48:47;;;;;;;;;;;;;;;28.06;40.65;94785.25;5059080;28;7002;-55
2023/09/29 06:51:14;;;;;;;;;;;;;;;28.05;40.39;94778.97;5059882;28;7223;-55
2023/09/29 06:53:42;;;;;;;;;;;;;;;28.05;40.88;94783.75;5079001;28;7217;-62
2023/09/29 06:56:08;;;;;;;;;;;;;;;28.07;40.57;94789.50;5047452;28;7926;-62
2023/09/29 06:58:34;;;;;;;;;;;;;;;28.07;40.37;94795.03;5075501;28;7212;-62
2023/09/29 07:01:01;;;;;;;;;;;;;;;28.08;40.41;94785.47;5059198;28;7095;-63
2023/09/29 07:03:32;;;;;;;;;;;;;;;28.06;40.42;94786.00;5055883;28;9073;-62
2023/09/29 07:06:01;;;;;;;;;;;;;;;28.07;40.68;94800.56;5069637;28;6997;-62
2023/09/29 07:08:33;;;;;;;;;;;;;;;28.07;41.17;94789.50;5050165;28;7053;-62
2023/09/29 07:11:02;;;;;;;;;;;;;;;28.06;41.06;94797.06;5059712;28;7187;-62
2023/09/29 07:13:32;;;;;;;;;;;;;;;28.07;40.98;94797.81;5054497;28;7232;-62
2023/09/29 07:16:02;;;;;;;;;;;;;;;28.11;40.54;94804.56;5055378;28;6976;-62
2023/09/29 07:18:30;;;;;;;;;;;;;;;28.10;41.31;94794.03;5059080;28;7912;-62
2023/09/29 07:21:19;;;;;;;;;;;;;;;28.13;41.14;94813.09;5083981;28;9038;-61
2023/09/29 07:23:56;;;;;;;;;;;;;;;28.17;40.90;94810.03;5085441;28;9458;-62
2023/09/29 07:26:39;;;;;;;;;;;;;;;28.16;41.28;94803.00;5072929;28;7176;-62
2023/09/29 07:29:11;;;;;;;;;;;;;;;28.16;41.15;94806.53;5069860;28;7308;-60
2023/09/29 07:31:38;;;;;;;;;;;;;;;28.13;41.07;94807.56;5060946;28;7043;-61
2023/09/29 07:34:11;;;;;;;;;;;;;;;28.14;41.18;94802.78;5051883;28;7005;-61
2023/09/29 07:36:48;;;;;;;;;;;;;;;28.14;40.71;94800.00;5054730;28;7200;-61
2023/09/29 07:39:25;;;;;;;;;;;;;;;28.16;41.37;94801.00;5074366;28;6928;-61
2023/09/29 07:41:54;;;;;;;;;;;;;;;28.19;40.94;94805.47;5057077;28;7175;-61
2023/09/29 07:44:25;;;;;;;;;;;;;;;28.21;41.29;94805.69;5060153;28;7067;-62
2023/09/29 07:46:53;;;;;;;;;;;;;;;28.19;41.45;94796.41;5059684;28;8787;-61
2023/09/29 07:49:20;;;;;;;;;;;;;;;28.19;41.12;94807.47;5064938;28;7012;-60
2023/09/29 07:51:47;;;;;;;;;;;;;;;28.21;41.48;94814.00;5062759;28;8181;-62
2023/09/29 07:54:30;;;;;;;;;;;;;;;28.23;41.21;94810.72;5058988;28;8248;-62
2023/09/29 07:57:01;;;;;;;;;;;;;;;28.25;40.96;94822.75;5076686;28;7291;-61
2023/09/29 07:59:35;;;;;;;;;;;;;;;28.23;41.11;94816.28;5055765;28;9115;-61
2023/09/29 08:02:04;;;;;;;;;;;;;;;28.27;41.32;94825.75;5055800;28;7008;-61
2023/09/29 08:04:30;;;;;;;;;;;;;;;28.27;41.00;94825.03;5061748;28;7223;-61
2023/09/29 08:06:56;;;;;;;;;;;;;;;28.28;41.38;94826.50;5061254;28;6885;-60
2023/09/29 08:09:55;;;;;;;;;;;;;;;28.28;41.25;94826.50;5070435;28;7370;-61
2023/09/29 08:12:26;;;;;;;;;;;;;;;28.28;41.46;94823.75;5053711;28;9403;-62
2023/09/29 08:15:10;;;;;;;;;;;;;;;28.28;41.46;94824.50;5056605;28;7084;-62
2023/09/29 08:17:40;;;;;;;;;;;;;;;28.27;41.41;94830.56;5071142;28;7254;-62
2023/09/29 08:20:07;;;;;;;;;;;;;;;28.26;41.10;94835.34;5067466;28;9156;-62
2023/09/29 08:22:33;;;;;;;;;;;;;;;28.26;41.09;94843.63;5071051;28;9219;-62
2023/09/29 08:25:03;;;;;;;;;;;;;;;28.25;40.88;94833.81;5069265;28;7480;-62
2023/09/29 08:27:29;;;;;;;;;;;;;;;28.26;41.71;94840.09;5057018;28;7253;-62
2023/09/29 08:30:22;;;;;;;;;;;;;;;28.25;41.40;94833.09;5066522;28;7250;-62
2023/09/29 08:32:48;;;;;;;;;;;;;;;28.26;41.57;94837.34;5032263;28;9069;-62
2023/09/29 08:35:17;;;;;;;;;;;;;;;28.27;41.44;94836.09;5026396;28;7877;-62
2023/09/29 08:38:07;;;;;;;;;;;;;;;28.29;42.04;94839.09;5026465;28;7355;-62
2023/09/29 08:40:40;;;;;;;;;;;;;;;28.30;41.31;94840.56;5016681;28;7197;-62
2023/09/29 08:43:06;;;;;;;;;;;;;;;28.27;41.84;94830.56;5031903;28;7265;-63
2023/09/29 08:45:58;;;;;;;;;;;;;;;28.32;41.74;94833.25;5021093;28;7393;-62
2023/09/29 08:48:28;;;;;;;;;;;;;;;28.34;41.32;94836.25;5029977;28;7211;-63
2023/09/29 08:51:13;;;;;;;;;;;;;;;28.35;42.07;94842.53;5031999;28;7195;-62
2023/09/29 08:53:50;;;;;;;;;;;;;;;28.33;41.75;94834.00;5035075;28;7399;-64
2023/09/29 08:56:34;;;;;;;;;;;;;;;28.33;41.43;94834.78;5017323;28;7447;-62
2023/09/29 08:59:30;;;;;;;;;;;;;;;28.35;41.55;94831.47;5010145;28;6992;-64
2023/09/29 09:01:58;;;;;;;;;;;;;;;28.32;41.52;94826.97;5041518;28;9023;-65
2023/09/29 09:04:34;;;;;;;;;;;;;;;28.32;41.45;94832.50;5022332;28;7973;-63
2023/09/29 09:07:24;;;;;;;;;;;;;;;28.31;41.55;94831.00;5002545;28;6971;-63
2023/09/29 09:09:57;;;;;;;;;;;;;;;28.29;41.82;94834.31;5039945;28;7725;-63
2023/09/29 09:12:36;;;;;;;;;;;;;;;28.28;41.93;94832.03;5066399;28;7481;-63
2023/09/29 09:15:04;;;;;;;;;;;;;;;28.24;41.85;94829.56;5043791;28;7234;-63
2023/09/29 09:17:31;;;;;;;;;;;;;;;28.28;42.07;94838.31;5051082;28;8609;-63
2023/09/29 09:20:01;;;;;;;;;;;;;;;28.28;41.63;94837.56;5059576;28;9027;-63
2023/09/29 09:22:32;;;;;;;;;;;;;;;28.29;41.54;94836.31;5046654;28;9410;-63
2023/09/29 09:24:59;;;;;;;;;;;;;;;28.27;40.92;94831.28;5036599;28;7241;-55
2023/09/29 09:27:49;;;;;;;;;;;;;;;28.28;42.13;94823.75;5041934;28;7000;-55
2023/09/29 09:30:26;;;;;;;;;;;;;;;28.30;41.55;94829.50;5062077;28;8765;-55
2023/09/29 09:32:51;;;;;;;;;;;;;;;28.29;41.58;94828.03;5052757;28;7055;-55
2023/09/29 09:35:31;;;;;;;;;;;;;;;28.28;41.17;94832.78;5052055;28;7247;-55
2023/09/29 09:38:08;;;;;;;;;;;;;;;28.27;41.43;94825.03;5069998;28;7469;-55
2023/09/29 09:40:35;;;;;;;;;;;;;;;28.29;41.07;94828.03;5058448;28;7200;-55
2023/09/29 09:43:05;;;;;;;;;;;;;;;28.28;41.10;94823.75;5079575;28;7246;-55
2023/09/29 09:46:02;;;;;;;;;;;;;;;28.28;41.81;94832.03;5064217;28;7576;-55
2023/09/29 09:48:49;;;;;;;;;;;;;;;28.27;41.10;94825.03;5061493;28;9114;-55
2023/09/29 09:51:29;;;;;;;;;;;;;;;28.24;41.31;94820.50;5068507;28;9117;-55
2023/09/29 09:54:02;;;;;;;;;;;;;;;28.23;42.19;94825.28;5075660;28;7108;-55
2023/09/29 09:56:45;;;;;;;;;;;;;;;28.22;42.14;94817.53;5070738;28;8743;-55
2023/09/29 09:59:44;;;;;;;;;;;;;;;28.25;42.49;94819.25;5058863;28;7241;-55
2023/09/29 10:02:13;;;;;;;;;;;;;;;28.25;42.13;94816.50;4983599;28;9211;-56
2023/09/29 10:04:43;;;;;;;;;;;;;;;28.27;42.28;94816.72;5002573;28;7256;-55
2023/09/29 10:07:21;;;;;;;;;;;;;;;28.26;42.49;94815.22;5003847;28;7624;-55
2023/09/29 10:10:00;;;;;;;;;;;;;;;28.27;41.58;94819.50;5007257;28;8760;-54
2023/09/29 10:12:31;;;;;;;;;;;;;;;28.28;42.08;94812.69;4995034;28;9410;-55
2023/09/29 10:14:59;;;;;;;;;;;;;;;28.30;41.84;94801.84;4990342;28;7317;-55
2023/09/29 10:17:49;;;;;;;;;;;;;;;28.32;41.82;94810.38;5011855;28;9104;-55
2023/09/29 10:20:26;;;;;;;;;;;;;;;28.33;42.34;94801.56;5002798;28;7361;-55
2023/09/29 10:23:16;;;;;;;;;;;;;;;28.35;41.93;94806.56;5002494;28;7658;-55
2023/09/29 10:26:00;;;;;;;;;;;;;;;28.34;41.72;94807.81;4991128;28;7183;-55
2023/09/29 10:28:40;;;;;;;;;;;;;;;28.35;42.71;94806.56;5018882;28;7307;-55
2023/09/29 10:31:14;;;;;;;;;;;;;;;28.35;42.61;94801.03;5010495;28;7078;-55
2023/09/29 10:33:54;;;;;;;;;;;;;;;28.35;41.83;94798.28;5000605;28;7897;-62
2023/09/29 10:36:26;;;;;;;;;;;;;;;28.38;41.49;94800.75;4987185;28;7436;-62
2023/09/29 10:39:00;;;;;;;;;;;;;;;28.41;42.30;94812.03;5038257;28;9027;-62
2023/09/29 10:41:32;;;;;;;;;;;;;;;28.42;41.66;94797.69;5055611;28;7001;-63
2023/09/29 10:44:03;;;;;;;;;;;;;;;28.42;41.90;94796.94;5072328;28;7317;-62
2023/09/29 10:46:29;;;;;;;;;;;;;;;28.43;41.88;94801.94;5070226;28;9226;-61
2023/09/29 10:48:58;;;;;;;;;;;;;;;28.44;42.43;94803.47;5074004;28;8849;-62
2023/09/29 10:51:30;;;;;;;;;;;;;;;28.42;42.18;94797.69;5049434;28;7233;-62
2023/09/29 10:54:02;;;;;;;;;;;;;;;28.46;41.81;94797.41;5071022;28;7174;-61
2023/09/29 10:56:29;;;;;;;;;;;;;;;28.43;42.54;94796.41;5054837;28;9213;-62
2023/09/29 10:58:55;;;;;;;;;;;;;;;28.43;41.93;94801.94;5081300;28;8469;-61
2023/09/29 11:01:32;;;;;;;;;;;;;;;28.45;41.87;94791.09;5072991;28;9433;-61
2023/09/29 11:04:01;;;;;;;;;;;;;;;28.45;42.29;94795.91;5047686;28;9574;-61
2023/09/29 11:06:29;;;;;;;;;;;;;;;28.48;41.10;94795.63;5076680;28;7233;-60
2023/09/29 11:08:58;;;;;;;;;;;;;;;28.49;42.20;94796.38;5067528;28;7245;-61
2023/09/29 11:11:36;;;;;;;;;;;;;;;28.51;41.93;94799.38;5055992;28;7178;-61
2023/09/29 11:14:05;;;;;;;;;;;;;;;28.51;41.84;94788.28;5075082;28;8864;-61
2023/09/29 11:16:34;;;;;;;;;;;;;;;28.53;40.92;94780.22;5078306;28;7181;-62
2023/09/29 11:19:14;;;;;;;;;;;;;;;28.56;41.53;94779.91;5063988;28;7242;-61
2023/09/29 11:21:42;;;;;;;;;;;;;;;28.53;41.50;94771.91;5084007;28;9472;-62
2023/09/29 11:24:13;;;;;;;;;;;;;;;28.58;41.08;94779.44;5077989;28;8307;-62
2023/09/29 11:26:43;;;;;;;;;;;;;;;28.57;41.10;94777.91;5079251;28;7185;-62
2023/09/29 11:29:29;;;;;;;;;;;;;;;28.61;41.49;94770.84;5076189;28;7019;-62
2023/09/29 11:31:55;;;;;;;;;;;;;;;28.62;41.08;94772.34;5057688;28;7235;-62
2023/09/29 11:34:29;;;;;;;;;;;;;;;28.61;41.35;94768.06;5060527;28;9379;-62
2023/09/29 11:36:55;;;;;;;;;;;;;;;28.58;40.80;94766.34;5067790;28;7507;-62
2023/09/29 11:39:23;;;;;;;;;;;;;;;28.60;41.64;94769.31;5077538;28;9185;-63
2023/09/29 11:41:53;;;;;;;;;;;;;;;28.59;41.16;94764.31;5048751;28;7017;-63
2023/09/29 11:44:22;;;;;;;;;;;;;;;28.61;41.12;94764.53;5064162;28;7123;-63
2023/09/29 11:46:51;;;;;;;;;;;;;;;28.62;40.50;94766.81;5066781;28;7451;-62
2023/09/29 11:49:17;;;;;;;;;;;;;;;28.63;41.57;94762.00;5072204;28;9072;-62
2023/09/29 11:51:54;;;;;;;;;;;;;;;28.61;41.41;94762.53;5080908;28;8705;-62
2023/09/29 11:54:24;;;;;;;;;;;;;;;28.58;41.29;94760.06;5064320;28;9091;-62
2023/09/29 11:56:52;;;;;;;;;;;;;;;28.55;41.35;94761.81;5059952;28;8581;-62
2023/09/29 11:59:19;;;;;;;;;;;;;;;28.54;41.80;94760.31;5063166;28;9045;-61
2023/09/29 12:01:47;;;;;;;;;;;;;;;28.54;41.44;94759.56;5060846;28;8107;-62
2023/09/29 12:04:15;;;;;;;;;;;;;;;28.57;40.87;94764.06;5047166;28;6981;-62
2023/09/29 12:06:41;;;;;;;;;;;;;;;28.58;41.33;94755.25;5042750;28;7264;-62
2023/09/29 12:09:10;;;;;;;;;;;;;;;28.60;40.96;94758.25;5079146;28;6853;-62
2023/09/29 12:11:36;;;;;;;;;;;;;;;28.60;41.70;94757.53;5081306;28;6995;-62
2023/09/29 12:14:03;;;;;;;;;;;;;;;28.62;41.34;94752.97;5066782;28;8883;-62
2023/09/29 12:16:32;;;;;;;;;;;;;;;28.63;42.15;94748.16;5052880;28;7084;-62
2023/09/29 12:18:59;;;;;;;;;;;;;;;28.64;41.29;94749.66;5040695;28;7350;-62
2023/09/29 12:21:26;;;;;;;;;;;;;;;28.66;40.90;94745.13;5066271;28;7078;-63
2023/09/29 12:23:54;;;;;;;;;;;;;;;28.65;41.86;94748.38;5082735;28;7008;-63
2023/09/29 12:26:23;;;;;;;;;;;;;;;28.69;41.37;94746.06;5055375;28;8734;-63
2023/09/29 12:28:51;;;;;;;;;;;;;;;28.68;41.15;94748.09;5074406;28;8835;-62
2023/09/29 12:31:17;;;;;;;;;;;;;;;28.73;41.47;94746.53;5045585;28;9077;-62
2023/09/29 12:33:53;;;;;;;;;;;;;;;28.76;40.79;94745.47;5047961;28;7049;-62
2023/09/29 12:36:49;;;;;;;;;;;;;;;28.78;41.04;94752.00;5067011;28;7335;-62
2023/09/29 12:39:18;;;;;;;;;;;;;;;28.77;41.76;94736.66;5079162;28;8832;-62
2023/09/29 12:41:45;;;;;;;;;;;;;;;28.81;41.11;94744.66;5058146;28;9396;-62
2023/09/29 12:44:15;;;;;;;;;;;;;;;28.88;41.24;94739.25;5070698;28;9075;-63
2023/09/29 12:47:10;;;;;;;;;;;;;;;29.00;40.85;94748.91;5056702;28;7713;-63
2023/09/29 12:50:31;;;;;;;;;;;;;;;29.07;40.43;94734.47;5011669;28;7236;-63
2023/09/29 12:52:59;;;;;;;;;;;;;;;29.09;41.25;94737.47;4961168;28;7346;-61
2023/09/29 12:55:27;;;;;;;;;;;;;;;29.12;40.51;94734.91;4959078;28;9092;-61
2023/09/29 12:58:09;;;;;;;;;;;;;;;29.13;39.97;94728.09;4937332;28;9421;-61
2023/09/29 13:00:51;;;;;;;;;;;;;;;29.12;41.15;94721.81;4950556;28;7760;-62
2023/09/29 13:03:27;;;;;;;;;;;;;;;29.13;41.23;94722.53;4953819;28;7636;-61
2023/09/29 13:06:13;;;;;;;;;;;;;;;29.15;40.28;94729.06;4952775;28;6992;-62
2023/09/29 13:08:54;;;;;;;;;;;;;;;29.13;41.35;94722.53;4957311;28;7353;-61
2023/09/29 13:11:32;;;;;;;;;;;;;;;29.16;40.70;94721.50;4949323;28;8000;-62
2023/09/29 13:13:59;;;;;;;;;;;;;;;29.16;40.71;94724.28;4953125;28;6996;-61
2023/09/29 13:16:44;;;;;;;;;;;;;;;29.18;41.11;94728.03;4942635;28;7012;-61
2023/09/29 13:19:10;;;;;;;;;;;;;;;29.18;40.85;94724.53;4948100;28;7282;-61
2023/09/29 13:21:38;;;;;;;;;;;;;;;29.18;40.24;94724.53;4947314;28;9194;-62
2023/09/29 13:24:41;;;;;;;;;;;;;;;29.20;41.07;94730.28;4950329;28;7110;-61
2023/09/29 13:27:24;;;;;;;;;;;;;;;29.23;40.45;94720.94;4903859;29;6982;-61
2023/09/29 13:30:23;;;;;;;;;;;;;;;29.25;40.24;94721.16;4971387;28;8747;-61
2023/09/29 13:32:51;;;;;;;;;;;;;;;29.23;41.21;94724.44;4932940;29;8731;-61
2023/09/29 13:35:27;;;;;;;;;;;;;;;29.26;40.59;94722.63;4932567;29;7232;-61
2023/09/29 13:37:55;;;;;;;;;;;;;;;29.30;41.57;94729.34;4922225;29;7145;-61